Highlands Peak, California Weather observations

Data are for observation ending at time listed.
 Day   Time    Ave.   Ave.  Ave.  Vector   Max.   Stn.    Total    Solar   Ave.  
  of    of     Air    Rel.  Wind   Wind    Wind   Baro.  Precip.   Rad.    Soil  
Year   Day     Temp.  Hum.  Speed  Dir.    Gust   Pres.                    Temp. 
2026   (PST)    F      %     mph   deg.    mph     mb.     in.     W/m2     F   
------------------------------------------------------------------------------
 245   10:50   61.1    68    6.3   237      9.7   932.4    0.00     856    69.9
 245   11:00   61.1    66    5.3   241      8.8   932.4    0.00     852    70.0
 245   11:10   61.6    64    5.0   245      9.3   932.4    0.00     873    70.1
 245   11:20   61.5    64    7.3   244     11.3   932.3    0.00     880    70.2
 245   11:30   61.1    65    7.8   239     13.0   932.3    0.00     884    70.2
 245   11:40   61.8    62    9.0   234     13.0   932.3    0.00     889    70.3
 245   11:50   61.5    64    9.1   228     13.1   932.2    0.00     891    70.4
 245   12:00   62.2    63    8.7   242     13.9   932.3    0.00     892    70.5
 245   12:10   63.3    61    7.6   224     12.6   932.2    0.00     892    70.7
 245   12:20   63.3    61    7.9   239     12.2   932.1    0.00     889    70.9
 245   12:30   63.7    60   10.3   233     14.4   932.2    0.00     885    71.1
 245   12:40   63.0    60   11.5   233     16.2   932.2    0.00     879    71.2
 245   12:50   63.1    63    8.6   232     14.2   932.2    0.00     871    71.4
 245   13:00   63.7    62   10.3   230     15.6   932.2    0.00     861    71.7
 245   13:10   64.3    60   13.1   238     17.9   932.2    0.00     850    72.0
 245   13:20   64.5    60   13.0   242     17.0   932.2    0.00     838    72.4
 245   13:30   64.5    59   13.4   238     19.8   932.1    0.00     825    72.7
 245   13:40   64.2    58   13.7   241     19.3   932.0    0.00     809    73.0
 245   13:50   63.8    60   12.9   244     18.8   932.1    0.00     790    73.4
 245   14:00   63.7    61   11.6   242     16.3   932.0    0.00     772    73.7
 245   14:10   63.7    60   11.7   243     17.3   931.9    0.00     731    74.0
 245   14:20   64.0    59   11.3   244     15.7   931.8    0.00     732    74.3
 245   14:30   63.8    60   10.0   244     14.2   931.8    0.00     710    74.6
 245   14:40   63.0    62    9.4   243     12.9   931.8    0.00     687    74.9
 245   14:50   62.8    64    8.3   242     12.6   931.8    0.00     664    75.2
 245   15:00   63.0    63    7.8   246     12.8   931.6    0.00     639    75.5
 245   15:10   63.0    63    7.3   250     12.5   931.5    0.00     610    75.8
 245   15:20   61.8    69    6.0   249     11.6   931.4    0.00     582    76.1
 245   15:30   62.9    67    8.0   251     12.1   931.3    0.00     551    76.3
 245   15:40   63.0    67    6.5   241     11.5   931.2    0.00     520    76.5
 245   15:50   63.2    66    5.6   232      9.5   931.2    0.00     489    76.8
 245   16:00   63.8    63    5.9   235      9.1   931.0    0.00     458    77.1
 245   16:10   64.1    63    5.8   236      8.7   930.8    0.00     424    77.3
 245   16:20   64.4    63    6.3   233      9.7   930.8    0.00     391    77.5
 245   16:30   63.8    64    6.6   226      9.4   930.7    0.00     356    77.8
 245   16:40   63.3    65    6.1   234     10.3   930.7    0.00     323    78.0
 245   16:50   62.6    70    6.0   231      8.8   930.8    0.00     288    78.2
 245   17:00   61.4    74    7.1   234     10.8   930.8    0.00     253    78.3
 245   17:10   60.4    77    7.6   234     11.5   930.8    0.00     219    78.5
 245   17:20   60.4    78    6.4   236      9.5   930.7    0.00     186    78.6
 245   17:30   60.3    80    5.8   235     10.2   930.6    0.00     152    78.6
 245   17:40   59.9    83    3.8   233      7.3   930.5    0.00     116    78.6
 245   17:50   59.7    84    3.9   234      6.7   930.4    0.00     100    78.7
 245   18:00   59.4    82    3.1   221      5.8   930.4    0.00      76    78.7
 245   18:10   58.7    82    2.3   224      3.9   930.3    0.00      53    78.7
 245   18:20   58.1    84    2.2   239      3.5   930.2    0.00      33    78.7
 245   18:30   57.0    88    1.9   240      3.6   930.2    0.00      17    78.7
 245   18:40   56.2    88    1.8   241      3.4   930.2    0.00       5    78.7
 245   18:50   55.4    89    2.1   255      3.4   930.2    0.00       1    78.7
 245   19:00   55.1    90    2.4   264      3.6   930.2    0.00       0    78.6
 245   19:10   55.1    88    2.8   250      4.0   930.2    0.00       0    78.6
 245   19:20   55.3    83    3.1   255      4.2   930.2    0.00       0    78.5
 245   19:30   55.2    84    3.4   271      4.3   930.1    0.00       0    78.5
 245   19:40   54.7    87    3.4   278      3.8   930.2    0.00       0    78.5
 245   19:50   54.5    91    4.6   284      5.7   930.3    0.00       0    78.5
 245   20:00   54.8    94    5.1   286      6.3   930.3    0.00       0    78.4
 245   20:10   54.8    91    4.8   287      6.4   930.4    0.00       0    78.4
 245   20:20   54.8    87    5.2   282      6.6   930.4    0.00       0    78.3
 245   20:30   55.0    80    5.6   284      7.0   930.4    0.00       0    78.2
 245   20:40   55.4    78    6.1   278      7.7   930.4    0.00       0    78.2
 245   20:50   55.3    78    6.4   280      7.4   930.4    0.00       0    78.1
 245   21:00   55.3    80    6.2   281      7.2   930.4    0.00       0    78.0
 245   21:10   55.7    75    6.0   292      7.3   930.3    0.00       0    77.9
 245   21:20   56.0    73    4.6   287      5.6   930.3    0.00       0    77.8
 245   21:30   56.5    71    2.8   255      4.0   930.2    0.00       0    77.7
 245   21:40   57.1    74    3.8   249      5.3   930.2    0.00       0    77.4
 245   21:50   57.0    78    4.2   259      5.2   930.1    0.00       0    77.2
 245   22:00   56.6    79    4.5   268      5.5   930.1    0.00       0    77.1
 245   22:10   55.9    82    4.8   279      5.5   930.1    0.00       0    77.1
 245   22:20   55.6    79    4.2   276      5.0   930.0    0.00       0    77.0
 245   22:30   56.5    72    4.0   260      4.6   930.0    0.00       0    76.8
 245   22:40   56.7    71    3.5   268      4.2   930.0    0.00       0    76.7
 245   22:50   56.4    66    3.7   267      4.8   929.9    0.00       0    76.7
 245   23:00   57.1    65    3.5   266      4.3   929.9    0.00       0    76.6
 245   23:10   57.0    66    3.2   274      4.2   929.9    0.00       0    76.5
 245   23:20   57.5    65    2.6   261      3.5   929.9    0.00       0    76.4
 245   23:30   57.9    66    1.8   248      2.6   929.9    0.00       0    76.2
 245   23:40   57.8    64    1.4   182      2.6   930.0    0.00       0    76.1
 245   23:50   57.3    64    2.8   136      3.8   930.1    0.00       0    76.1
 246    0:00   57.5    63    2.3   110      3.1   930.1    0.00       0    76.1
 246    0:10   57.8    65    2.4   107      2.9   930.0    0.00       0    76.1
 246    0:20   58.0    66    2.3    78      3.1   930.0    0.00       0    76.0
 246    0:30   58.1    68    2.3    85      3.1   929.9    0.00       0    76.0
 246    0:40   58.4    72    1.5   108      2.0   929.9    0.00       0    75.9
 246    0:50   58.6    73    2.7   140      3.5   929.9    0.00       0    75.7
 246    1:00   58.3    71    2.9   163      3.4   929.9    0.00       0    75.5
 246    1:10   58.0    68    3.7   140      4.7   929.9    0.00       0    75.4
 246    1:20   58.1    67    3.4   127      4.5   929.9    0.00       0    75.4
 246    1:30   57.9    67    2.8    72      4.2   929.8    0.00       0    75.3
 246    1:40   57.4    70    3.7    44      4.7   929.7    0.00       0    75.3
 246    1:50   57.8    72    3.5    29      4.3   929.6    0.00       0    75.2
 246    2:00   58.2    71    2.7    54      4.4   929.6    0.00       0    75.1
 246    2:10   58.3    70    0.1    67      0.8   929.6    0.00       0    74.9
 246    2:20   58.0    71    0.2    18      2.0   929.6    0.00       0    74.8
 246    2:30   57.8    71    0.2    40      1.2   929.6    0.00       0    74.7
 246    2:40   57.9    71    0.4   304      1.7   929.5    0.00       0    74.6
 246    2:50   57.7    71    1.7     5      3.8   929.5    0.00       0    74.5
 246    3:00   57.4    71    4.5    21      6.3   929.4    0.00       0    74.5
 246    3:10   57.4    71    4.5    13      6.1   929.4    0.00       0    74.3
 246    3:20   57.3    70    6.6     4      8.1   929.3    0.00       0    74.2
 246    3:30   57.1    70    5.7    15      7.5   929.2    0.00       0    74.2
 246    3:40   57.3    70    5.5    23      6.9   929.1    0.00       0    74.1
 246    3:50   58.1    68    4.8    21      6.5   929.0    0.00       0    74.0
 246    4:00   58.5    67    4.3    20      5.5   929.0    0.00       0    74.0
 246    4:10   57.8    66    5.1    13      6.6   928.9    0.00       0    73.8
 246    4:20   57.0    69    3.6   316      5.4   928.9    0.00       0    73.7
 246    4:30   55.8    74    3.5   284      3.9   928.8    0.00       0    73.6
 246    4:40   55.6    74    3.3   276      4.0   928.8    0.00       0    73.5
 246    4:50   55.5    73    3.0   255      3.7   928.8    0.00       0    73.4
 246    5:00   55.9    69    2.4   246      3.9   928.8    0.00       0    73.2
 246    5:10   55.9    71    2.7   233      4.2   928.9    0.00       0    73.0
 246    5:20   55.9    70    2.0   294      3.1   929.0    0.00       0    73.0
 246    5:30   55.7    70    1.5    39      3.4   929.0    0.00       1    73.1
 246    5:40   56.0    69    0.4   136      1.3   928.9    0.00       3    73.0
 246    5:50   56.4    69    1.3   228      2.3   929.0    0.00       6    72.8
 246    6:00   56.7    70    1.3   248      1.8   929.1    0.00       9    72.8
 246    6:10   57.0    69    1.6     9      4.5   929.1    0.00      13    72.7
 246    6:20   56.6    68    3.5    36      4.8   929.0    0.00      17    72.7
 246    6:30   57.6    64    2.6    51      5.6   929.1    0.00      80    72.7
 246    6:40   59.0    64    0.5   200      2.5   929.3    0.00     160    72.4
 246    6:50   60.4    64    0.9    74      2.6   929.3    0.00     198    72.3
 246    7:00   60.6    65    2.4   156      3.1   929.4    0.00     233    72.2
 246    7:10   59.6    64    1.2   204      2.4   929.6    0.00     265    71.9
 246    7:20   59.8    64    0.7   160      2.1   929.6    0.00     300    71.8
 246    7:30   60.9    62    0.7   138      2.0   929.7    0.00     338    71.7
 246    7:40   60.4    63    1.8   153      3.7   929.7    0.00     368    71.6
 246    7:50   58.9    67    2.1   176      3.7   929.7    0.00     396    71.5
 246    8:00   60.3    65    1.9   117      3.5   929.6    0.00     430    71.6
 246    8:10   59.9    64    1.3   195      2.3   929.6    0.00     457    71.4
 246    8:20   59.5    67    2.0   174      3.9   929.4    0.00     495    71.3
 246    8:30   59.5    68    2.5   208      3.7   929.4    0.00     519    71.2
 246    8:40   59.4    70    2.0   208      3.0   929.5    0.00     552    71.1
 246    8:50   59.9    68    3.0   215      5.3   929.5    0.00     588    71.1
 246    9:00   59.8    69    3.8   223      5.9   929.7    0.00     613    71.0
 246    9:10   59.1    72    3.5   222      5.8   929.8    0.00     645    70.9
 246    9:20   59.3    72    1.7   237      3.3   929.8    0.00     674    71.0
 246    9:30   59.7    72    2.7   234      4.8   929.7    0.00     703    71.0
 246    9:40   59.6    74    3.5   234      6.0   929.7    0.00     730    70.9
 246    9:50   59.4    74    2.5   222      4.1   929.6    0.00     751    70.9
 246   10:00   61.0    70    3.1   216      5.8   929.6    0.00     771    71.0
 246   10:10   60.0    72    4.2   225      7.6   929.6    0.00     784    71.0
 246   10:20   59.4    74    5.1   230      7.6   929.7    0.00     799    71.0
 246   10:30   59.1    76    4.0   237      8.9   929.7    0.00     818    71.0
 246   10:40   59.8    74    2.8   227      5.1   929.7    0.00     830    71.2

Return to Highlands Peak graphs page.


Western Regional Climate Center,wrcc@dri.edu